createdAt,value
2022-08-09T00:00:33.586Z,89.73
2022-08-09T00:04:05.621Z,90.09
2022-08-09T00:06:19.833Z,90.81
2022-08-09T00:09:09.608Z,89.77
2022-08-09T00:12:03.950Z,89.60
2022-08-09T00:14:58.594Z,90.54
2022-08-09T00:18:10.262Z,90.01
2022-08-09T00:21:08.523Z,90.29
2022-08-09T00:24:02.582Z,90.22
2022-08-09T00:26:49.590Z,89.93
2022-08-09T00:30:10.290Z,90.28
2022-08-09T00:32:29.613Z,89.46
2022-08-09T00:35:03.329Z,89.60
2022-08-09T00:37:49.597Z,90.31
2022-08-09T00:40:30.340Z,90.06
2022-08-09T00:44:14.428Z,89.89
2022-08-09T00:46:56.928Z,89.52
2022-08-09T00:49:55.108Z,89.77
2022-08-09T00:52:50.611Z,89.62
2022-08-09T00:56:04.121Z,89.10
2022-08-09T00:58:35.860Z,89.06
2022-08-09T01:01:32.215Z,88.55
2022-08-09T01:04:10.689Z,89.06
2022-08-09T01:07:12.253Z,88.24
2022-08-09T01:10:04.633Z,88.44
2022-08-09T01:12:58.661Z,87.49
2022-08-09T01:15:51.711Z,87.66
2022-08-09T01:19:01.858Z,88.16
2022-08-09T01:22:19.658Z,88.73
2022-08-09T01:25:37.392Z,88.32
2022-08-09T01:28:37.632Z,89.01
2022-08-09T01:32:29.810Z,88.19
2022-08-09T01:34:33.635Z,88.72
2022-08-09T01:38:05.807Z,89.14
2022-08-09T01:40:34.640Z,88.46
2022-08-09T01:43:17.633Z,88.26
2022-08-09T01:45:53.920Z,88.37
2022-08-09T01:48:53.652Z,88.42
2022-08-09T01:51:44.480Z,88.92
2022-08-09T01:54:35.741Z,89.05
2022-08-09T01:57:27.639Z,89.09
2022-08-09T02:00:34.798Z,88.93
2022-08-09T02:03:22.653Z,88.65
2022-08-09T02:06:03.721Z,89.12
2022-08-09T02:08:58.807Z,88.39
2022-08-09T02:11:40.345Z,88.34
2022-08-09T02:14:32.667Z,88.50
2022-08-09T02:17:15.330Z,87.92
2022-08-09T02:20:15.895Z,88.67
2022-08-09T02:23:31.996Z,88.44
2022-08-09T02:26:28.665Z,88.71
2022-08-09T02:29:13.657Z,89.68
2022-08-09T02:32:14.678Z,90.12
2022-08-09T02:35:17.644Z,90.37
2022-08-09T02:38:00.681Z,91.32
2022-08-09T02:40:50.734Z,91.19
2022-08-09T02:43:25.733Z,91.70
2022-08-09T02:46:17.677Z,92.44
2022-08-09T02:48:58.679Z,92.14
2022-08-09T02:51:49.700Z,92.33
2022-08-09T02:54:35.659Z,92.68
2022-08-09T02:57:59.666Z,92.96
2022-08-09T03:00:47.674Z,93.76
2022-08-09T03:03:37.255Z,93.46
2022-08-09T03:06:30.683Z,93.53
2022-08-09T03:09:12.682Z,92.79
2022-08-09T03:12:05.398Z,93.64
2022-08-09T03:14:46.759Z,93.34
2022-08-09T03:17:35.702Z,93.36
2022-08-09T03:20:11.834Z,92.62
2022-08-09T03:23:00.321Z,92.51
2022-08-09T03:25:59.167Z,92.58
2022-08-09T03:28:44.694Z,92.35
2022-08-09T03:31:42.433Z,92.92
2022-08-09T03:34:17.770Z,92.68
2022-08-09T03:37:54.647Z,92.26
2022-08-09T03:39:58.848Z,91.73
2022-08-09T03:42:47.713Z,92.25
2022-08-09T03:46:03.148Z,91.45
2022-08-09T03:48:51.416Z,91.45
2022-08-09T03:51:56.727Z,91.51
2022-08-09T03:54:44.690Z,91.95
2022-08-09T03:57:20.936Z,91.03
2022-08-09T04:00:07.704Z,90.87
2022-08-09T04:02:52.623Z,91.24
2022-08-09T04:05:47.702Z,91.35
2022-08-09T04:08:34.700Z,90.74
2022-08-09T04:11:11.160Z,90.67
2022-08-09T04:14:52.914Z,90.42
2022-08-09T04:16:50.838Z,90.73
2022-08-09T04:19:42.894Z,91.04
2022-08-09T04:22:32.090Z,90.77
2022-08-09T04:25:26.719Z,90.39
2022-08-09T04:28:30.827Z,90.70
2022-08-09T04:31:22.733Z,90.49
2022-08-09T04:34:06.892Z,89.96
2022-08-09T04:37:00.746Z,90.35
2022-08-09T04:39:49.240Z,90.89
2022-08-09T04:42:23.622Z,89.89
2022-08-09T04:45:11.723Z,89.72
2022-08-09T04:47:58.787Z,89.81
2022-08-09T04:50:50.086Z,90.36
2022-08-09T04:53:23.817Z,90.27
2022-08-09T04:56:12.740Z,90.36
2022-08-09T04:58:52.821Z,89.84
2022-08-09T05:01:41.736Z,90.06
2022-08-09T05:04:14.890Z,90.29
2022-08-09T05:07:01.727Z,89.83
2022-08-09T05:09:49.370Z,89.48
2022-08-09T05:12:37.731Z,88.93
2022-08-09T05:15:38.579Z,88.83
2022-08-09T05:18:57.553Z,88.49
2022-08-09T05:21:47.253Z,87.21
2022-08-09T05:24:32.743Z,86.90
2022-08-09T05:27:19.778Z,86.27
2022-08-09T05:29:52.825Z,85.48
2022-08-09T05:32:39.764Z,85.75
2022-08-09T05:35:23.753Z,84.94
2022-08-09T05:38:21.784Z,84.38
2022-08-09T05:41:15.765Z,84.45
2022-08-09T05:44:09.760Z,84.65
2022-08-09T05:47:04.900Z,84.75
2022-08-09T05:50:34.979Z,84.89
2022-08-09T05:53:11.764Z,84.85
2022-08-09T05:55:59.908Z,85.99
2022-08-09T05:58:48.778Z,85.93
2022-08-09T06:01:21.860Z,86.45
2022-08-09T06:04:09.829Z,86.15
2022-08-09T06:06:49.822Z,86.85
2022-08-09T06:09:54.823Z,86.46
2022-08-09T06:12:29.867Z,86.70
2022-08-09T06:15:16.785Z,86.88
2022-08-09T06:17:51.671Z,87.85
2022-08-09T06:20:38.803Z,87.16
2022-08-09T06:23:15.644Z,87.38
2022-08-09T06:26:02.813Z,87.73
2022-08-09T06:28:35.879Z,87.58
2022-08-09T06:31:31.041Z,87.40
2022-08-09T06:34:11.803Z,87.81
2022-08-09T06:37:10.173Z,87.95
2022-08-09T06:39:59.783Z,87.09
2022-08-09T06:42:33.911Z,87.55
2022-08-09T06:46:07.285Z,87.43
2022-08-09T06:48:30.528Z,87.46
2022-08-09T06:51:18.789Z,86.94
2022-08-09T06:54:00.913Z,86.98
2022-08-09T06:56:47.797Z,87.03
2022-08-09T07:00:54.583Z,86.92
2022-08-09T07:02:29.533Z,86.83
2022-08-09T07:05:11.817Z,86.16
2022-08-09T07:08:01.892Z,86.84
2022-08-09T07:10:44.844Z,86.41
2022-08-09T07:13:45.106Z,86.09
2022-08-09T07:16:57.956Z,86.06
2022-08-09T07:19:44.825Z,85.56
2022-08-09T07:22:34.255Z,85.29
2022-08-09T07:25:21.828Z,85.47
2022-08-09T07:27:55.449Z,85.13
2022-08-09T07:30:42.844Z,85.10
2022-08-09T07:33:16.709Z,85.74
2022-08-09T07:36:03.840Z,84.97
2022-08-09T07:38:37.937Z,85.09
2022-08-09T07:41:25.840Z,85.89
2022-08-09T07:44:00.012Z,85.83
2022-08-09T07:46:46.849Z,86.26
2022-08-09T07:49:20.920Z,85.36
2022-08-09T07:52:16.809Z,86.00
2022-08-09T07:54:57.838Z,85.82
2022-08-09T07:57:54.855Z,85.43
2022-08-09T08:00:49.299Z,85.65
2022-08-09T08:03:36.973Z,85.80
2022-08-09T08:06:31.952Z,86.18
2022-08-09T08:09:35.578Z,85.71
2022-08-09T08:12:28.047Z,86.45
2022-08-09T08:15:17.315Z,86.03
2022-08-09T08:17:57.948Z,85.64
2022-08-09T08:20:45.832Z,85.43
2022-08-09T08:23:27.242Z,85.54
2022-08-09T08:26:13.861Z,85.80
2022-08-09T08:28:50.865Z,85.04
2022-08-09T08:32:01.038Z,85.21
2022-08-09T08:34:37.858Z,84.73
2022-08-09T08:37:41.305Z,84.60
2022-08-09T08:40:41.870Z,83.64
2022-08-09T08:43:14.954Z,83.78
2022-08-09T08:46:32.458Z,83.51
2022-08-09T08:49:01.977Z,83.87
2022-08-09T08:52:00.267Z,83.47
2022-08-09T08:54:41.869Z,82.99
2022-08-09T08:57:37.284Z,83.31
2022-08-09T09:00:27.827Z,82.52
2022-08-09T09:03:22.714Z,81.37
2022-08-09T09:06:18.871Z,82.03
2022-08-09T09:09:40.984Z,81.01
2022-08-09T09:12:00.945Z,81.33
2022-08-09T09:14:48.880Z,80.81
2022-08-09T09:17:30.862Z,78.25
2022-08-09T09:20:41.920Z,78.59
2022-08-09T09:23:15.020Z,78.98
2022-08-09T09:26:12.352Z,76.56
2022-08-09T09:29:03.604Z,77.29
2022-08-09T09:32:03.861Z,77.65
2022-08-09T09:34:48.022Z,77.06
2022-08-09T09:37:36.902Z,77.25
2022-08-09T09:40:15.064Z,77.69
2022-08-09T09:43:04.898Z,77.01
2022-08-09T09:49:16.902Z,75.55
2022-08-09T09:52:35.783Z,74.96
2022-08-09T09:55:32.657Z,74.01
2022-08-09T09:58:20.214Z,73.40
2022-08-09T10:01:01.009Z,74.53
2022-08-09T10:03:58.220Z,73.59
2022-08-09T10:06:46.975Z,74.31
2022-08-09T10:10:03.912Z,76.00
2022-08-09T10:12:53.361Z,75.55
2022-08-09T10:16:54.623Z,75.86
2022-08-09T10:19:10.111Z,75.91
2022-08-09T10:22:00.338Z,75.89
2022-08-09T10:24:49.872Z,76.15
2022-08-09T10:27:38.477Z,76.48
2022-08-09T10:34:11.216Z,73.79
2022-08-09T10:37:03.062Z,74.50
2022-08-09T10:39:50.028Z,73.60
2022-08-09T10:42:26.981Z,75.21
2022-08-09T10:45:17.105Z,74.13
2022-08-09T10:48:30.660Z,72.93
2022-08-09T10:51:44.934Z,74.38
2022-08-09T10:54:31.961Z,73.57
2022-08-09T10:57:26.935Z,73.24
2022-08-09T11:00:35.294Z,73.97
2022-08-09T11:03:50.079Z,75.33
2022-08-09T11:06:23.190Z,74.04
2022-08-09T11:08:59.736Z,72.76
2022-08-09T11:12:05.079Z,71.24
2022-08-09T11:14:48.550Z,73.13
2022-08-09T11:17:27.963Z,72.52
2022-08-09T11:20:22.061Z,71.31
2022-08-09T11:23:07.093Z,70.63
2022-08-09T11:25:54.655Z,71.11
2022-08-09T11:28:55.701Z,71.58
2022-08-09T11:31:53.023Z,71.18
2022-08-09T11:34:56.750Z,69.79
2022-08-09T11:37:49.837Z,68.09
2022-08-09T11:40:44.064Z,67.45
2022-08-09T11:43:37.386Z,68.15
2022-08-09T11:46:33.349Z,66.35
2022-08-09T11:49:28.958Z,68.43
2022-08-09T11:53:03.757Z,66.69
2022-08-09T11:55:53.216Z,66.79
2022-08-09T11:58:50.226Z,68.05
2022-08-09T12:02:16.263Z,66.35
2022-08-09T12:04:47.053Z,66.82
2022-08-09T12:07:42.142Z,68.96
2022-08-09T12:10:38.258Z,69.30
2022-08-09T12:14:10.160Z,69.49
2022-08-09T12:16:37.603Z,69.62
2022-08-09T12:19:35.023Z,68.96
2022-08-09T12:22:13.097Z,69.43
2022-08-09T12:25:18.000Z,69.05
2022-08-09T12:29:11.662Z,68.80
2022-08-09T12:32:02.654Z,68.56
2022-08-09T12:34:49.006Z,69.11
2022-08-09T12:37:51.734Z,69.93
2022-08-09T12:40:37.020Z,70.36
2022-08-09T12:44:06.115Z,71.87
2022-08-09T12:46:42.006Z,70.58
2022-08-09T12:49:23.993Z,70.81
2022-08-09T12:52:19.019Z,69.06
2022-08-09T12:56:13.056Z,69.51
2022-08-09T12:58:24.210Z,69.84
2022-08-09T13:01:08.052Z,69.29
2022-08-09T13:03:57.408Z,69.10
2022-08-09T13:06:49.021Z,70.28
2022-08-09T13:09:38.328Z,70.42
2022-08-09T13:12:28.153Z,70.19
2022-08-09T13:15:14.076Z,70.53
2022-08-09T13:18:17.252Z,70.91
2022-08-09T13:21:04.073Z,70.93
2022-08-09T13:24:42.278Z,70.56
2022-08-09T13:26:59.923Z,69.22
2022-08-09T13:30:04.370Z,71.14
2022-08-09T13:33:11.998Z,70.71
2022-08-09T13:36:41.538Z,70.57
2022-08-09T13:41:46.297Z,70.23
2022-08-09T13:42:18.193Z,70.06
2022-08-09T13:45:08.458Z,69.52
2022-08-09T13:47:51.219Z,69.26
2022-08-09T13:50:41.055Z,70.01
2022-08-09T13:53:16.748Z,70.04
2022-08-09T13:56:03.073Z,67.81
2022-08-09T13:58:36.144Z,68.48
2022-08-09T14:01:56.221Z,68.46
2022-08-09T14:04:23.656Z,69.87
2022-08-09T14:07:11.041Z,68.59
2022-08-09T14:09:44.176Z,69.46
2022-08-09T14:12:31.261Z,70.13
2022-08-09T14:15:06.862Z,69.19
2022-08-09T14:18:19.700Z,68.91
2022-08-09T14:21:08.064Z,69.58
2022-08-09T14:24:18.337Z,70.41
2022-08-09T14:27:02.301Z,67.87
2022-08-09T14:30:34.905Z,68.50
2022-08-09T14:32:42.330Z,69.67
2022-08-09T14:35:52.231Z,70.30
2022-08-09T14:38:40.064Z,69.75
2022-08-09T14:41:34.409Z,68.38
2022-08-09T14:44:32.622Z,69.63
2022-08-09T14:47:46.615Z,69.11
2022-08-09T14:50:43.077Z,69.38
2022-08-09T14:53:32.084Z,70.12
2022-08-09T14:56:21.705Z,70.31
2022-08-09T14:59:20.080Z,69.25
2022-08-09T15:02:08.120Z,69.43
2022-08-09T15:04:42.179Z,69.69
2022-08-09T15:07:30.773Z,70.72
2022-08-09T15:10:16.100Z,70.04
2022-08-09T15:13:04.110Z,70.79
2022-08-09T15:15:38.984Z,71.04
2022-08-09T15:18:26.077Z,71.71
2022-08-09T15:21:55.796Z,71.93
2022-08-09T15:24:19.137Z,71.85
2022-08-09T15:26:57.777Z,71.63
2022-08-09T15:30:55.711Z,71.63
2022-08-09T15:32:46.413Z,72.71
2022-08-09T15:35:45.113Z,72.78
2022-08-09T15:38:56.492Z,73.04
2022-08-09T15:41:50.749Z,73.06
2022-08-09T15:44:38.139Z,73.84
2022-08-09T15:47:14.548Z,73.77
2022-08-09T15:50:19.114Z,72.40
2022-08-09T15:54:02.322Z,72.08
2022-08-09T15:56:29.005Z,72.73
2022-08-09T15:59:25.140Z,72.57
2022-08-09T16:02:27.319Z,72.63
2022-08-09T16:05:08.135Z,72.79
2022-08-09T16:08:02.137Z,72.06
2022-08-09T16:10:55.585Z,72.64
2022-08-09T16:14:04.238Z,74.03
2022-08-09T16:16:38.965Z,73.04
2022-08-09T16:19:17.203Z,73.82
2022-08-09T16:22:05.142Z,74.70
2022-08-09T16:24:45.140Z,73.67
2022-08-09T16:27:52.933Z,75.10
2022-08-09T16:30:59.287Z,73.94
2022-08-09T16:33:53.138Z,74.94
2022-08-09T16:36:49.134Z,74.75
2022-08-09T16:39:29.225Z,76.21
2022-08-09T16:42:27.124Z,76.61
2022-08-09T16:45:00.217Z,76.98
2022-08-09T16:48:40.922Z,76.85
2022-08-09T16:50:59.445Z,77.06
2022-08-09T16:54:34.578Z,77.18
2022-08-09T16:57:08.247Z,77.05
2022-08-09T16:59:50.268Z,77.35
2022-08-09T17:02:46.386Z,77.40
2022-08-09T17:05:20.250Z,77.28
2022-08-09T17:08:46.753Z,77.28
2022-08-09T17:11:08.174Z,77.50
2022-08-09T17:14:05.161Z,78.01
2022-08-09T17:16:52.187Z,78.28
2022-08-09T17:20:11.124Z,78.36
2022-08-09T17:22:50.219Z,78.57
2022-08-09T17:25:39.170Z,79.37
2022-08-09T17:28:13.243Z,78.78
2022-08-09T17:31:00.182Z,79.40
2022-08-09T17:33:36.011Z,79.31
2022-08-09T17:36:25.186Z,79.91
2022-08-09T17:39:00.269Z,79.83
2022-08-09T17:41:49.979Z,80.07
2022-08-09T17:44:42.026Z,80.16
2022-08-09T17:47:49.464Z,80.49
2022-08-09T17:50:37.316Z,80.03
2022-08-09T17:53:24.174Z,80.58
2022-08-09T17:56:02.042Z,80.79
2022-08-09T17:58:53.185Z,81.29
2022-08-09T18:02:03.814Z,81.18
2022-08-09T18:04:34.211Z,81.49
2022-08-09T18:07:09.292Z,81.84
2022-08-09T18:10:10.197Z,82.10
2022-08-09T18:13:39.876Z,82.80
2022-08-09T18:16:08.053Z,82.45
2022-08-09T18:18:49.045Z,82.75
2022-08-09T18:21:40.965Z,82.85
2022-08-09T18:24:16.326Z,83.37
2022-08-09T18:27:03.180Z,83.25
2022-08-09T18:30:38.342Z,82.94
2022-08-09T18:32:53.988Z,83.26
2022-08-09T18:35:58.023Z,83.71
2022-08-09T18:38:28.226Z,84.03
2022-08-09T18:41:08.239Z,83.84
2022-08-09T18:43:53.130Z,84.23
2022-08-09T18:46:48.546Z,84.67
2022-08-09T18:49:41.530Z,84.25
2022-08-09T18:52:37.630Z,84.46
2022-08-09T18:55:56.296Z,85.40
2022-08-09T18:58:47.235Z,85.31
2022-08-09T19:01:43.518Z,84.87
2022-08-09T19:04:35.129Z,85.57
2022-08-09T19:07:22.262Z,85.63
2022-08-09T19:10:15.293Z,86.16
2022-08-09T19:13:15.474Z,85.74
2022-08-09T19:15:55.685Z,86.36
2022-08-09T19:18:45.462Z,86.42
2022-08-09T19:21:51.774Z,86.71
2022-08-09T19:24:33.505Z,86.74
2022-08-09T19:27:14.330Z,87.21
2022-08-09T19:30:22.689Z,87.18
2022-08-09T19:32:55.410Z,86.76
2022-08-09T19:35:56.497Z,86.85
2022-08-09T19:38:39.818Z,87.17
2022-08-09T19:41:35.390Z,87.46
2022-08-09T19:44:29.405Z,87.84
2022-08-09T19:47:09.276Z,87.73
2022-08-09T19:50:07.978Z,87.72
2022-08-09T19:52:52.462Z,87.88
2022-08-09T19:56:02.954Z,87.68
2022-08-09T19:58:34.241Z,87.94
2022-08-09T20:01:14.378Z,88.67
2022-08-09T20:04:25.267Z,88.32
2022-08-09T20:06:54.352Z,88.80
2022-08-09T20:09:44.494Z,88.91
2022-08-09T20:12:30.202Z,89.04
2022-08-09T20:16:37.680Z,89.01
2022-08-09T20:18:28.012Z,89.51
2022-08-09T20:21:09.301Z,89.74
2022-08-09T20:23:57.246Z,89.35
2022-08-09T20:26:37.321Z,89.70
2022-08-09T20:29:37.323Z,89.80
2022-08-09T20:32:30.808Z,89.93
2022-08-09T20:35:14.265Z,89.91
2022-08-09T20:38:20.416Z,89.95
2022-08-09T20:41:35.157Z,90.50
2022-08-09T20:44:26.978Z,90.32
2022-08-09T20:47:03.398Z,90.93
2022-08-09T20:49:57.310Z,90.79
2022-08-09T20:52:52.293Z,91.10
2022-08-09T20:55:47.153Z,91.18
2022-08-09T20:58:39.298Z,91.36
2022-08-09T21:01:34.012Z,91.48
2022-08-09T21:05:51.262Z,91.36
2022-08-09T21:07:40.411Z,91.26
2022-08-09T21:10:15.546Z,91.65
2022-08-09T21:13:02.307Z,91.96
2022-08-09T21:15:35.431Z,91.75
2022-08-09T21:18:27.400Z,92.22
2022-08-09T21:21:01.425Z,91.96
2022-08-09T21:24:04.329Z,92.53
2022-08-09T21:26:37.457Z,92.43
2022-08-09T21:29:26.309Z,92.41
2022-08-09T21:32:00.738Z,92.44
2022-08-09T21:34:51.293Z,92.89
2022-08-09T21:37:25.419Z,92.44
2022-08-09T21:40:21.976Z,92.77
2022-08-09T21:43:11.283Z,93.03
2022-08-09T21:45:54.395Z,93.08
2022-08-09T21:48:42.826Z,93.71
2022-08-09T21:51:24.577Z,93.64
2022-08-09T21:54:23.310Z,93.26
2022-08-09T21:56:58.406Z,93.66
2022-08-09T21:59:45.323Z,94.04
2022-08-09T22:02:19.498Z,94.08
2022-08-09T22:05:23.843Z,94.06
2022-08-09T22:08:12.952Z,94.24
2022-08-09T22:11:49.352Z,94.13
2022-08-09T22:14:02.317Z,94.13
2022-08-09T22:16:56.330Z,94.20
2022-08-09T22:19:59.683Z,94.51
2022-08-09T22:22:35.656Z,94.13
2022-08-09T22:26:06.653Z,94.26
2022-08-09T22:28:29.657Z,94.40
2022-08-09T22:31:19.338Z,94.33
2022-08-09T22:34:00.311Z,94.66
2022-08-09T22:36:47.352Z,94.57
2022-08-09T22:39:56.045Z,94.63
2022-08-09T22:42:29.338Z,94.56
2022-08-09T22:48:14.265Z,94.60
2022-08-09T22:48:34.954Z,94.92
2022-08-09T22:51:23.900Z,94.45
2022-08-09T22:54:11.327Z,94.83
2022-08-09T22:56:45.417Z,94.42
2022-08-09T22:59:55.518Z,94.91
2022-08-09T23:02:30.475Z,94.65
2022-08-09T23:05:17.355Z,95.32
2022-08-09T23:08:27.759Z,95.01
2022-08-09T23:11:22.367Z,95.04
2022-08-09T23:13:58.732Z,94.69
2022-08-09T23:16:45.365Z,95.39
2022-08-09T23:19:18.476Z,95.40
2022-08-09T23:22:05.361Z,95.20
2022-08-09T23:24:38.615Z,95.20
2022-08-09T23:27:25.369Z,95.02
2022-08-09T23:29:58.449Z,94.95
2022-08-09T23:32:45.349Z,94.78
2022-08-09T23:35:25.368Z,94.55
2022-08-09T23:38:19.385Z,95.09
2022-08-09T23:41:06.388Z,95.13
2022-08-09T23:43:39.446Z,95.22
2022-08-09T23:46:26.357Z,95.59
2022-08-09T23:48:59.512Z,95.31
2022-08-09T23:51:53.385Z,95.67
2022-08-09T23:54:47.400Z,95.46
2022-08-09T23:57:34.368Z,95.87
